首页
METAR-TAF:

METAR-TAF

机场 :

Sudbury, 安大略省, 加拿大

纬度: 46-37N, 经度: 080-48W, 海拔: 348米

当前天气观测

该预报发布于1小时和14分钟前的18:00 UTC
风速10节,风向西转西北,有时为19节阵风
温度 21°C
湿度 35%
气压 1016 hPa
能見度: 32.2公里
散云层高于7000英尺
多云层高于11000英尺
多云层高于21000英尺

METAR: CYSB 011800Z 30010G19KT 20SM SCT070 BKN110 BKN210 21/05 A3001 RMK CU3AC2CI2 SLP170 DENSITY ALT 2000FT

时间: 15:14 (19:14 UTC)

预报

该预报发布于5小时和44分钟前的13:30 UTC
预报有效从01日的 14点(UTC)到 02日的 02点(UTC)
风速8节,风向西转西南,有时为18节阵风
能見度: 10公里
散云层高于9000英尺
多云层高于12000英尺
多云层高于21000英尺
成为
从 01日的 14点(UTC)到 01日的 16点(UTC)
风速12节,风向西转西北,有时为22节阵风
从 01日的 2100点(UTC)
风速10节,风向西转西北,有时为20节阵风
能見度: 10公里
多云层高于8000英尺
多云层高于16000英尺
成为
从 01日的 23点(UTC)到 02日的 01点(UTC)
风速10节,风向西南,有时为20节阵风

TAF: CYSB 011330Z 0114/0202 24008G18KT P6SM SCT090 BKN120 BKN210 BECMG 0114/0116 29012G22KT FM012100 30010G20KT P6SM BKN080 BKN160 BECMG 0123/0201 23010G20KT RMK NXT FCST BY 012000Z

超过4000个机场的气象观测和天气预报(METAR&TAF报告)。

可查询的气象台以黄色和红色小点在地图上表示。

将鼠标移到小点上方,可查看气象台名称。

然后点击查看天气观测和预报。

如需切换地图:点击带黑十字的绿色按钮放大地图;点击带横线的绿色按钮缩小地图;或者点击绿色箭头查看邻近地区的地图。


METAR-TAF: